USTRANSCOM 7581


KWRI
Joint Base McGuire Dix Lakehurst
Wrightstown, New Jersey, US
EGUN
RAF Mildenhall
Mildenhall, , GB

Activity Log

Date Flight Route Aircraft Duration
No Flights Yet

Route Details

Aircraft Information
Primary: Boeing 767-300BDSF
Backup: Boeing 757-200SF
Route Data
Distance: 3069nm
Sched. Duration: 6h 40m
Avg. Duration: 0h 00m (-640m)
Times Flown: 0
Recm'd Route: Not Available
Planned Altitude: 31,000ft
Origin Wx: KWRI 311156Z 08005KT 10SM BKN007 OVC014 05/05 A3002 RMK AO2A CIG 004 RWY18 CIG 005 RWY24 SLP166 60004 70015 T00520052 10067 20052 52021 $
Dest. Wx: EGUN 311156Z COR 05006KT 9999 SCT040 09/M03 A3049 RMK AO2A SLP338 WND DATA ESTMD ALSTG/SLP ESTMD RVRNO COR 1158
Notes: USTRANSCOM CONTRACT FLIGHT

Financial History
Total Freight: 0lbs
Average Load: 0lbs/flt
Fuel Used: 0lbs
Avg. Fuel Used: 0lbs/flt
Fuel Expense: $0
Avg. Fuel Expense: $0
Avg. Fuel Cost: $0/lbs
Total Gross Income: $0
Pilot Pay: $0
Total Expenses: $0
Total Revenue: $0
Average Revenue: $0